DLH242 EDDS-LEMD
Flight info
| Callsign | DLH242 |
|---|---|
| Flight time | 2h 5m |
| Altitude | 31000 |
| Route | ROTWE5B ROTWE Y126 TUBLO N850 NATOR DCT LUTIX/N0457F350 N869 BENOT DCT NEMOS DCT NINTU/N0456F330 DCT MEBAK/N0458F350 DCT REPSI DCT LERGA DCT MINSO DCT NARAK DCT AGN DCT MAQAB DCT TIVLI N869 ZAR Z245 TERSA |
| Aircraft | A320/M-SDE3FGHIRWY/LB1 |
Departure
| Time | 2026-05-06 07:19 |
|---|---|
| Airport | Stuttgart Airport (EDDS) |
Arrival
| Time | 2026-05-06 09:24 |
|---|---|
| Airport | Adolfo Suárez Madrid–Barajas Airport (LEMD) |
| Time | Latitude | Longitude | Altitude | Speed | Heading |
|---|---|---|---|---|---|
| 2026-05-06 07:10 | 48.69160 | 9.21468 | 1286 ft | 0 kts | 320° |
| 2026-05-06 07:15 | 48.69163 | 9.21461 | 1287 ft | 5 kts | 307° |
| 2026-05-06 07:16 | 48.69154 | 9.21332 | 1286 ft | 16 kts | 238° |
| 2026-05-06 07:16 | 48.69071 | 9.21222 | 1288 ft | 16 kts | 214° |
| 2026-05-06 07:16 | 48.68977 | 9.21160 | 1287 ft | 14 kts | 222° |
| 2026-05-06 07:16 | 48.68941 | 9.21041 | 1285 ft | 11 kts | 252° |
| 2026-05-06 07:17 | 48.68919 | 9.20940 | 1286 ft | 9 kts | 257° |
| 2026-05-06 07:17 | 48.68897 | 9.20785 | 1287 ft | 23 kts | 258° |
| 2026-05-06 07:17 | 48.68844 | 9.20500 | 1286 ft | 30 kts | 253° |
| 2026-05-06 07:17 | 48.68786 | 9.20196 | 1287 ft | 30 kts | 255° |
| 2026-05-06 07:18 | 48.68732 | 9.19991 | 1285 ft | 14 kts | 207° |
| 2026-05-06 07:18 | 48.68641 | 9.20005 | 1285 ft | 12 kts | 169° |
| 2026-05-06 07:18 | 48.68585 | 9.20058 | 1285 ft | 8 kts | 92° |
| 2026-05-06 07:18 | 48.68602 | 9.20172 | 1286 ft | 26 kts | 75° |
| 2026-05-06 07:19 | 48.68728 | 9.20828 | 1285 ft | 100 kts | 73° |
| 2026-05-06 07:19 | 48.68976 | 9.22142 | 1289 ft | 157 kts | 73° |
| 2026-05-06 07:19 | 48.69323 | 9.23868 | 1627 ft | 176 kts | 73° |
| 2026-05-06 07:19 | 48.69647 | 9.25645 | 2407 ft | 176 kts | 74° |
| 2026-05-06 07:20 | 48.69993 | 9.27501 | 2949 ft | 194 kts | 73° |
| 2026-05-06 07:20 | 48.70390 | 9.29566 | 3389 ft | 215 kts | 72° |
| 2026-05-06 07:20 | 48.70830 | 9.31832 | 3949 ft | 233 kts | 72° |
| 2026-05-06 07:20 | 48.71252 | 9.34296 | 4311 ft | 248 kts | 84° |
| 2026-05-06 07:21 | 48.70917 | 9.36845 | 4816 ft | 253 kts | 120° |
| 2026-05-06 07:21 | 48.69804 | 9.38879 | 5475 ft | 253 kts | 148° |
| 2026-05-06 07:21 | 48.68212 | 9.39965 | 6128 ft | 252 kts | 169° |
| 2026-05-06 07:21 | 48.66466 | 9.40243 | 6802 ft | 253 kts | 185° |
| 2026-05-06 07:22 | 48.64737 | 9.39753 | 7484 ft | 254 kts | 202° |
| 2026-05-06 07:22 | 48.63194 | 9.38474 | 8143 ft | 256 kts | 220° |
| 2026-05-06 07:22 | 48.61973 | 9.36433 | 8472 ft | 274 kts | 240° |
| 2026-05-06 07:22 | 48.61286 | 9.33684 | 9039 ft | 282 kts | 260° |
| 2026-05-06 07:23 | 48.61288 | 9.30704 | 9683 ft | 287 kts | 278° |
| 2026-05-06 07:23 | 48.61612 | 9.27675 | 10108 ft | 301 kts | 274° |
| 2026-05-06 07:23 | 48.61551 | 9.24422 | 10261 ft | 321 kts | 258° |
| 2026-05-06 07:23 | 48.60998 | 9.21089 | 10394 ft | 343 kts | 253° |
| 2026-05-06 07:24 | 48.60356 | 9.17505 | 10817 ft | 353 kts | 253° |
| 2026-05-06 07:24 | 48.59717 | 9.13945 | 11431 ft | 357 kts | 253° |
| 2026-05-06 07:24 | 48.59065 | 9.10308 | 12072 ft | 360 kts | 253° |
| 2026-05-06 07:24 | 48.58409 | 9.06644 | 12730 ft | 363 kts | 253° |
| 2026-05-06 07:25 | 48.57747 | 9.02954 | 13361 ft | 365 kts | 253° |
| 2026-05-06 07:25 | 48.57081 | 8.99245 | 14004 ft | 367 kts | 253° |
| 2026-05-06 07:25 | 48.56410 | 8.95513 | 14612 ft | 370 kts | 253° |
| 2026-05-06 07:25 | 48.55735 | 8.91759 | 15212 ft | 372 kts | 253° |
| 2026-05-06 07:26 | 48.55056 | 8.87983 | 15789 ft | 374 kts | 253° |
| 2026-05-06 07:26 | 48.54369 | 8.84172 | 16347 ft | 377 kts | 253° |
| 2026-05-06 07:26 | 48.53674 | 8.80343 | 16913 ft | 379 kts | 253° |
| 2026-05-06 07:26 | 48.52975 | 8.76498 | 17469 ft | 382 kts | 253° |
| 2026-05-06 07:27 | 48.52267 | 8.72628 | 17999 ft | 384 kts | 253° |
| 2026-05-06 07:27 | 48.51552 | 8.68726 | 18527 ft | 387 kts | 253° |
| 2026-05-06 07:27 | 48.50834 | 8.64809 | 19057 ft | 388 kts | 253° |
| 2026-05-06 07:27 | 48.50114 | 8.60866 | 19588 ft | 390 kts | 252° |
| 2026-05-06 07:28 | 48.49396 | 8.56920 | 20107 ft | 391 kts | 252° |
| 2026-05-06 07:28 | 48.48656 | 8.52959 | 20590 ft | 392 kts | 249° |
| 2026-05-06 07:28 | 48.46572 | 8.46945 | 21360 ft | 391 kts | 231° |
| 2026-05-06 07:29 | 48.44032 | 8.43040 | 21934 ft | 391 kts | 218° |
| 2026-05-06 07:29 | 48.42548 | 8.41511 | 22219 ft | 392 kts | 211° |
| 2026-05-06 07:29 | 48.40083 | 8.39731 | 22667 ft | 394 kts | 202° |
| 2026-05-06 07:29 | 48.37447 | 8.38587 | 23073 ft | 397 kts | 194° |
| 2026-05-06 07:30 | 48.34740 | 8.37745 | 23492 ft | 397 kts | 194° |
| 2026-05-06 07:30 | 48.32035 | 8.36893 | 23922 ft | 398 kts | 195° |
| 2026-05-06 07:30 | 48.29319 | 8.36027 | 24312 ft | 399 kts | 195° |
| 2026-05-06 07:30 | 48.26605 | 8.35158 | 24677 ft | 400 kts | 195° |
| 2026-05-06 07:31 | 48.23873 | 8.34288 | 24988 ft | 401 kts | 195° |
| 2026-05-06 07:31 | 48.21138 | 8.33426 | 25319 ft | 403 kts | 194° |
| 2026-05-06 07:31 | 48.18418 | 8.32432 | 25625 ft | 402 kts | 200° |
| 2026-05-06 07:31 | 48.15832 | 8.30842 | 25936 ft | 401 kts | 209° |
| 2026-05-06 07:32 | 48.13442 | 8.28695 | 26223 ft | 402 kts | 214° |
| 2026-05-06 07:32 | 48.11092 | 8.26407 | 26507 ft | 403 kts | 213° |
| 2026-05-06 07:32 | 48.08733 | 8.24125 | 26766 ft | 405 kts | 213° |
| 2026-05-06 07:32 | 48.06358 | 8.21837 | 27027 ft | 407 kts | 213° |
| 2026-05-06 07:33 | 48.03974 | 8.19552 | 27275 ft | 408 kts | 213° |
| 2026-05-06 07:33 | 48.01574 | 8.17255 | 27519 ft | 410 kts | 213° |
| 2026-05-06 07:33 | 47.99179 | 8.14953 | 27769 ft | 410 kts | 213° |
| 2026-05-06 07:33 | 47.96769 | 8.12632 | 27994 ft | 412 kts | 213° |
| 2026-05-06 07:34 | 47.94361 | 8.10319 | 28211 ft | 413 kts | 213° |
| 2026-05-06 07:34 | 47.91933 | 8.07999 | 28414 ft | 414 kts | 213° |
| 2026-05-06 07:34 | 47.89506 | 8.05690 | 28666 ft | 414 kts | 213° |
| 2026-05-06 07:34 | 47.87084 | 8.03384 | 28948 ft | 412 kts | 213° |
| 2026-05-06 07:35 | 47.84677 | 8.01082 | 29214 ft | 412 kts | 213° |
| 2026-05-06 07:35 | 47.82266 | 7.98776 | 29493 ft | 411 kts | 213° |
| 2026-05-06 07:35 | 47.79864 | 7.96483 | 29761 ft | 410 kts | 213° |
| 2026-05-06 07:35 | 47.77459 | 7.94198 | 30020 ft | 409 kts | 213° |
| 2026-05-06 07:36 | 47.75092 | 7.91954 | 30271 ft | 409 kts | 213° |
| 2026-05-06 07:36 | 47.72697 | 7.89681 | 30510 ft | 409 kts | 213° |
| 2026-05-06 07:36 | 47.70304 | 7.87409 | 30745 ft | 408 kts | 213° |
| 2026-05-06 07:36 | 47.67909 | 7.85140 | 30821 ft | 407 kts | 213° |
| 2026-05-06 07:37 | 47.63141 | 7.80630 | 30830 ft | 406 kts | 213° |
| 2026-05-06 07:37 | 47.58380 | 7.76140 | 30832 ft | 405 kts | 213° |
| 2026-05-06 07:38 | 47.53630 | 7.71670 | 30840 ft | 404 kts | 213° |
| 2026-05-06 07:38 | 47.48879 | 7.67221 | 30837 ft | 404 kts | 213° |
| 2026-05-06 07:39 | 47.44133 | 7.62771 | 30840 ft | 404 kts | 213° |
| 2026-05-06 07:39 | 47.39389 | 7.58325 | 30842 ft | 404 kts | 212° |
| 2026-05-06 07:40 | 47.34640 | 7.53903 | 30844 ft | 403 kts | 212° |
| 2026-05-06 07:40 | 47.29903 | 7.49491 | 30844 ft | 403 kts | 212° |
| 2026-05-06 07:41 | 47.25173 | 7.45095 | 30842 ft | 402 kts | 212° |
| 2026-05-06 07:41 | 47.20438 | 7.40713 | 30841 ft | 402 kts | 212° |
| 2026-05-06 07:42 | 47.15956 | 7.35849 | 30841 ft | 402 kts | 224° |
| 2026-05-06 07:42 | 47.12400 | 7.29499 | 30840 ft | 403 kts | 229° |
| 2026-05-06 07:43 | 47.08911 | 7.23055 | 30840 ft | 403 kts | 229° |
| 2026-05-06 07:43 | 47.05416 | 7.16641 | 30839 ft | 402 kts | 229° |
| 2026-05-06 07:44 | 47.01924 | 7.10232 | 30833 ft | 402 kts | 229° |
| 2026-05-06 07:44 | 46.98454 | 7.03874 | 30833 ft | 402 kts | 229° |
| 2026-05-06 07:45 | 46.94951 | 6.97483 | 30837 ft | 402 kts | 229° |
| 2026-05-06 07:45 | 46.91443 | 6.91111 | 30831 ft | 402 kts | 229° |
| 2026-05-06 07:46 | 46.87935 | 6.84745 | 30837 ft | 402 kts | 229° |
| 2026-05-06 07:46 | 46.84421 | 6.78392 | 30838 ft | 402 kts | 229° |
| 2026-05-06 07:47 | 46.80906 | 6.72053 | 30837 ft | 401 kts | 229° |
| 2026-05-06 07:47 | 46.77394 | 6.65733 | 30840 ft | 401 kts | 229° |
| 2026-05-06 07:48 | 46.73882 | 6.59420 | 30838 ft | 401 kts | 228° |
| 2026-05-06 07:48 | 46.70366 | 6.53125 | 30835 ft | 401 kts | 228° |
| 2026-05-06 07:49 | 46.66845 | 6.46831 | 30834 ft | 401 kts | 228° |
| 2026-05-06 07:49 | 46.63321 | 6.40543 | 30840 ft | 400 kts | 228° |
| 2026-05-06 07:50 | 46.59795 | 6.34276 | 30842 ft | 400 kts | 228° |
| 2026-05-06 07:50 | 46.56270 | 6.28030 | 30851 ft | 399 kts | 228° |
| 2026-05-06 07:51 | 46.52756 | 6.21797 | 30850 ft | 398 kts | 228° |
| 2026-05-06 07:51 | 46.49246 | 6.15581 | 30847 ft | 398 kts | 228° |
| 2026-05-06 07:52 | 46.45732 | 6.09384 | 30853 ft | 397 kts | 228° |
| 2026-05-06 07:52 | 46.42215 | 6.03201 | 30854 ft | 397 kts | 228° |
| 2026-05-06 07:53 | 46.38723 | 5.97062 | 30852 ft | 397 kts | 227° |
| 2026-05-06 07:53 | 46.35200 | 5.90887 | 30849 ft | 397 kts | 227° |
| 2026-05-06 07:54 | 46.31667 | 5.84720 | 30851 ft | 398 kts | 227° |
| 2026-05-06 07:54 | 46.28134 | 5.78559 | 30854 ft | 398 kts | 227° |
| 2026-05-06 07:55 | 46.24595 | 5.72408 | 30856 ft | 398 kts | 227° |
| 2026-05-06 07:55 | 46.21050 | 5.66256 | 30854 ft | 398 kts | 227° |
| 2026-05-06 07:56 | 46.17502 | 5.60121 | 30856 ft | 398 kts | 227° |
| 2026-05-06 07:56 | 46.14027 | 5.53876 | 30856 ft | 400 kts | 232° |
| 2026-05-06 07:57 | 46.10900 | 5.47304 | 30858 ft | 400 kts | 232° |
| 2026-05-06 07:57 | 46.07735 | 5.40692 | 30862 ft | 402 kts | 232° |
| 2026-05-06 07:58 | 46.04543 | 5.34067 | 30865 ft | 403 kts | 232° |
| 2026-05-06 07:58 | 46.01334 | 5.27431 | 30868 ft | 404 kts | 232° |
| 2026-05-06 07:59 | 45.98116 | 5.20784 | 30872 ft | 405 kts | 232° |
| 2026-05-06 07:59 | 45.94895 | 5.14129 | 30884 ft | 406 kts | 232° |
| 2026-05-06 08:00 | 45.91665 | 5.07469 | 30896 ft | 406 kts | 232° |
| 2026-05-06 08:00 | 45.88428 | 5.00824 | 30888 ft | 406 kts | 232° |
| 2026-05-06 08:01 | 45.85181 | 4.94169 | 30878 ft | 407 kts | 232° |
| 2026-05-06 08:01 | 45.81926 | 4.87510 | 30883 ft | 408 kts | 232° |
| 2026-05-06 08:02 | 45.78653 | 4.80831 | 30890 ft | 410 kts | 232° |
| 2026-05-06 08:02 | 45.75375 | 4.74173 | 30888 ft | 412 kts | 232° |
| 2026-05-06 08:03 | 45.72041 | 4.67417 | 30881 ft | 414 kts | 232° |
| 2026-05-06 08:03 | 45.68715 | 4.60668 | 30883 ft | 416 kts | 232° |
| 2026-05-06 08:04 | 45.65371 | 4.53900 | 30885 ft | 418 kts | 232° |
| 2026-05-06 08:04 | 45.62009 | 4.47108 | 30881 ft | 419 kts | 232° |
| 2026-05-06 08:05 | 45.58629 | 4.40310 | 30886 ft | 420 kts | 232° |
| 2026-05-06 08:05 | 45.55233 | 4.33513 | 30895 ft | 421 kts | 232° |
| 2026-05-06 08:06 | 45.51826 | 4.26696 | 30899 ft | 422 kts | 232° |
| 2026-05-06 08:06 | 45.48439 | 4.19924 | 30902 ft | 423 kts | 232° |
| 2026-05-06 08:07 | 45.45023 | 4.13112 | 30908 ft | 423 kts | 232° |
| 2026-05-06 08:07 | 45.41597 | 4.06309 | 30909 ft | 422 kts | 232° |
| 2026-05-06 08:08 | 45.38171 | 3.99518 | 30910 ft | 422 kts | 232° |
| 2026-05-06 08:08 | 45.34737 | 3.92741 | 30902 ft | 423 kts | 232° |
| 2026-05-06 08:09 | 45.31287 | 3.85961 | 30902 ft | 423 kts | 232° |
| 2026-05-06 08:09 | 45.27836 | 3.79179 | 30905 ft | 423 kts | 232° |
| 2026-05-06 08:10 | 45.24398 | 3.72392 | 30907 ft | 423 kts | 232° |
| 2026-05-06 08:10 | 45.21024 | 3.65552 | 30915 ft | 423 kts | 233° |
| 2026-05-06 08:11 | 45.17680 | 3.58709 | 30919 ft | 422 kts | 233° |
| 2026-05-06 08:11 | 45.14327 | 3.51890 | 30926 ft | 421 kts | 233° |
| 2026-05-06 08:12 | 45.10960 | 3.45104 | 30927 ft | 421 kts | 233° |
| 2026-05-06 08:12 | 45.07600 | 3.38339 | 30927 ft | 420 kts | 233° |
| 2026-05-06 08:13 | 45.04810 | 3.32731 | 30924 ft | 419 kts | 233° |
| 2026-05-06 08:13 | 45.01447 | 3.25988 | 30927 ft | 419 kts | 233° |
| 2026-05-06 08:14 | 44.98084 | 3.19263 | 30928 ft | 419 kts | 233° |
| 2026-05-06 08:14 | 44.94719 | 3.12548 | 30927 ft | 418 kts | 233° |
| 2026-05-06 08:15 | 44.91357 | 3.05851 | 30927 ft | 418 kts | 233° |
| 2026-05-06 08:15 | 44.87990 | 2.99163 | 30933 ft | 418 kts | 233° |
| 2026-05-06 08:16 | 44.84620 | 2.92495 | 30935 ft | 418 kts | 233° |
| 2026-05-06 08:16 | 44.81390 | 2.85690 | 30935 ft | 418 kts | 236° |
| 2026-05-06 08:17 | 44.78277 | 2.78774 | 30941 ft | 418 kts | 236° |
| 2026-05-06 08:17 | 44.75152 | 2.71878 | 30948 ft | 418 kts | 236° |
| 2026-05-06 08:18 | 44.71989 | 2.65029 | 30949 ft | 417 kts | 236° |
| 2026-05-06 08:18 | 44.68810 | 2.58204 | 30952 ft | 417 kts | 236° |
| 2026-05-06 08:19 | 44.65630 | 2.51384 | 30954 ft | 417 kts | 236° |
| 2026-05-06 08:19 | 44.62459 | 2.44571 | 30956 ft | 416 kts | 236° |
| 2026-05-06 08:20 | 44.59290 | 2.37779 | 30959 ft | 416 kts | 236° |
| 2026-05-06 08:20 | 44.56129 | 2.31038 | 30964 ft | 415 kts | 236° |
| 2026-05-06 08:21 | 44.52953 | 2.24276 | 30963 ft | 415 kts | 236° |
| 2026-05-06 08:21 | 44.49780 | 2.17540 | 30962 ft | 414 kts | 236° |
| 2026-05-06 08:22 | 44.46605 | 2.10825 | 30966 ft | 413 kts | 236° |
| 2026-05-06 08:22 | 44.43433 | 2.04129 | 30966 ft | 412 kts | 236° |
| 2026-05-06 08:23 | 44.40274 | 1.97449 | 30964 ft | 412 kts | 236° |
| 2026-05-06 08:23 | 44.37112 | 1.90777 | 30955 ft | 411 kts | 236° |
| 2026-05-06 08:24 | 44.33943 | 1.84126 | 30952 ft | 411 kts | 236° |
| 2026-05-06 08:24 | 44.30772 | 1.77483 | 30954 ft | 411 kts | 236° |
| 2026-05-06 08:25 | 44.27621 | 1.70823 | 30954 ft | 411 kts | 237° |
| 2026-05-06 08:25 | 44.24541 | 1.64100 | 30953 ft | 411 kts | 237° |
| 2026-05-06 08:26 | 44.21474 | 1.57367 | 30950 ft | 412 kts | 237° |
| 2026-05-06 08:26 | 44.18386 | 1.50649 | 30946 ft | 412 kts | 237° |
| 2026-05-06 08:27 | 44.15272 | 1.43921 | 30942 ft | 413 kts | 237° |
| 2026-05-06 08:27 | 44.12157 | 1.37192 | 30942 ft | 414 kts | 237° |
| 2026-05-06 08:28 | 44.09030 | 1.30445 | 30936 ft | 415 kts | 237° |
| 2026-05-06 08:28 | 44.05887 | 1.23704 | 30936 ft | 416 kts | 237° |
| 2026-05-06 08:29 | 44.02724 | 1.16940 | 30938 ft | 418 kts | 237° |
| 2026-05-06 08:29 | 43.99574 | 1.10213 | 30935 ft | 419 kts | 237° |
| 2026-05-06 08:30 | 43.96395 | 1.03435 | 30966 ft | 417 kts | 237° |
| 2026-05-06 08:30 | 43.93237 | 0.96696 | 30976 ft | 415 kts | 237° |
| 2026-05-06 08:31 | 43.90078 | 0.89994 | 30970 ft | 415 kts | 237° |
| 2026-05-06 08:31 | 43.86211 | 0.84068 | 30962 ft | 417 kts | 223° |
| 2026-05-06 08:32 | 43.81871 | 0.78720 | 30950 ft | 418 kts | 224° |
| 2026-05-06 08:32 | 43.77532 | 0.73361 | 30946 ft | 419 kts | 224° |
| 2026-05-06 08:33 | 43.73175 | 0.67978 | 30944 ft | 420 kts | 224° |
| 2026-05-06 08:33 | 43.68807 | 0.62601 | 30943 ft | 421 kts | 224° |
| 2026-05-06 08:34 | 43.62223 | 0.54546 | 30948 ft | 422 kts | 224° |
| 2026-05-06 08:35 | 43.57827 | 0.49154 | 30952 ft | 423 kts | 224° |
| 2026-05-06 08:35 | 43.53419 | 0.43767 | 30957 ft | 423 kts | 224° |
| 2026-05-06 08:36 | 43.48997 | 0.38393 | 30961 ft | 424 kts | 223° |
| 2026-05-06 08:36 | 43.44568 | 0.33018 | 30968 ft | 424 kts | 223° |
| 2026-05-06 08:37 | 43.40138 | 0.27646 | 30979 ft | 424 kts | 224° |
| 2026-05-06 08:37 | 43.35732 | 0.22304 | 30990 ft | 425 kts | 224° |
| 2026-05-06 08:38 | 43.31304 | 0.16953 | 30998 ft | 424 kts | 223° |
| 2026-05-06 08:38 | 43.26877 | 0.11617 | 31007 ft | 423 kts | 224° |
| 2026-05-06 08:39 | 43.22460 | 0.06297 | 31015 ft | 422 kts | 224° |
| 2026-05-06 08:39 | 43.18051 | 0.00998 | 31016 ft | 421 kts | 223° |
| 2026-05-06 08:40 | 43.13647 | -0.04271 | 31007 ft | 420 kts | 224° |
| 2026-05-06 08:40 | 43.09231 | -0.09549 | 30977 ft | 422 kts | 224° |
| 2026-05-06 08:41 | 43.04790 | -0.14855 | 30975 ft | 425 kts | 224° |
| 2026-05-06 08:41 | 43.00332 | -0.20167 | 30975 ft | 426 kts | 224° |
| 2026-05-06 08:42 | 42.95863 | -0.25479 | 30978 ft | 427 kts | 224° |
| 2026-05-06 08:42 | 42.91383 | -0.30792 | 30979 ft | 427 kts | 224° |
| 2026-05-06 08:43 | 42.86899 | -0.36103 | 30981 ft | 426 kts | 224° |
| 2026-05-06 08:43 | 42.82444 | -0.41346 | 30985 ft | 426 kts | 222° |
| 2026-05-06 08:44 | 42.77269 | -0.45381 | 30982 ft | 435 kts | 205° |
| 2026-05-06 08:44 | 42.71618 | -0.48347 | 30984 ft | 435 kts | 205° |
| 2026-05-06 08:45 | 42.65969 | -0.51313 | 30990 ft | 435 kts | 206° |
| 2026-05-06 08:45 | 42.60335 | -0.54281 | 30996 ft | 434 kts | 206° |
| 2026-05-06 08:46 | 42.54708 | -0.57235 | 30999 ft | 433 kts | 206° |
| 2026-05-06 08:46 | 42.49087 | -0.60175 | 31002 ft | 432 kts | 206° |
| 2026-05-06 08:47 | 42.43481 | -0.63099 | 31002 ft | 431 kts | 206° |
| 2026-05-06 08:47 | 42.37878 | -0.66008 | 31004 ft | 431 kts | 206° |
| 2026-05-06 08:48 | 42.32284 | -0.68915 | 30998 ft | 430 kts | 206° |
| 2026-05-06 08:48 | 42.26713 | -0.71812 | 30992 ft | 429 kts | 206° |
| 2026-05-06 08:49 | 42.21143 | -0.74709 | 30993 ft | 429 kts | 206° |
| 2026-05-06 08:49 | 42.15564 | -0.77579 | 30989 ft | 428 kts | 206° |
| 2026-05-06 08:50 | 42.10033 | -0.80426 | 31000 ft | 428 kts | 206° |
| 2026-05-06 08:50 | 42.04477 | -0.83299 | 31004 ft | 428 kts | 206° |
| 2026-05-06 08:51 | 41.98919 | -0.86156 | 31007 ft | 427 kts | 206° |
| 2026-05-06 08:51 | 41.93380 | -0.88998 | 31035 ft | 425 kts | 207° |
| 2026-05-06 08:52 | 41.87879 | -0.91820 | 31043 ft | 422 kts | 207° |
| 2026-05-06 08:52 | 41.82395 | -0.94622 | 31045 ft | 421 kts | 207° |
| 2026-05-06 08:53 | 41.76924 | -0.97414 | 31040 ft | 420 kts | 207° |
| 2026-05-06 08:53 | 41.71472 | -1.00197 | 31035 ft | 419 kts | 207° |
| 2026-05-06 08:54 | 41.66154 | -1.03260 | 31031 ft | 411 kts | 216° |
| 2026-05-06 08:54 | 41.61743 | -1.07977 | 31031 ft | 404 kts | 226° |
| 2026-05-06 08:55 | 41.57580 | -1.13026 | 31025 ft | 404 kts | 226° |
| 2026-05-06 08:55 | 41.53399 | -1.18045 | 31020 ft | 404 kts | 226° |
| 2026-05-06 08:56 | 41.49227 | -1.23062 | 31015 ft | 404 kts | 226° |
| 2026-05-06 08:56 | 41.45075 | -1.28050 | 31015 ft | 404 kts | 226° |
| 2026-05-06 08:57 | 41.40897 | -1.33061 | 31014 ft | 404 kts | 226° |
| 2026-05-06 08:57 | 41.36711 | -1.38070 | 31012 ft | 404 kts | 226° |
| 2026-05-06 08:58 | 41.33206 | -1.42257 | 31012 ft | 404 kts | 226° |
| 2026-05-06 08:58 | 41.29014 | -1.47255 | 31013 ft | 404 kts | 226° |
| 2026-05-06 08:59 | 41.24819 | -1.52251 | 30778 ft | 405 kts | 226° |
| 2026-05-06 08:59 | 41.22723 | -1.54744 | 30533 ft | 405 kts | 226° |
| 2026-05-06 08:59 | 41.20620 | -1.57240 | 30279 ft | 405 kts | 226° |
| 2026-05-06 08:59 | 41.18521 | -1.59728 | 30037 ft | 405 kts | 226° |
| 2026-05-06 09:00 | 41.16415 | -1.62224 | 29776 ft | 405 kts | 226° |
| 2026-05-06 09:00 | 41.14340 | -1.64683 | 29526 ft | 407 kts | 225° |
| 2026-05-06 09:00 | 41.12228 | -1.67183 | 29279 ft | 407 kts | 225° |
| 2026-05-06 09:00 | 41.10113 | -1.69688 | 29029 ft | 408 kts | 225° |
| 2026-05-06 09:01 | 41.07988 | -1.72197 | 28772 ft | 408 kts | 225° |
| 2026-05-06 09:01 | 41.05871 | -1.74693 | 28529 ft | 407 kts | 225° |
| 2026-05-06 09:01 | 41.03757 | -1.77185 | 28276 ft | 406 kts | 225° |
| 2026-05-06 09:01 | 41.01651 | -1.79668 | 28028 ft | 405 kts | 225° |
| 2026-05-06 09:02 | 40.99549 | -1.82145 | 27706 ft | 403 kts | 225° |
| 2026-05-06 09:02 | 40.97461 | -1.84597 | 27049 ft | 400 kts | 225° |
| 2026-05-06 09:02 | 40.95390 | -1.87028 | 26407 ft | 396 kts | 225° |
| 2026-05-06 09:02 | 40.93338 | -1.89435 | 25776 ft | 393 kts | 225° |
| 2026-05-06 09:03 | 40.91296 | -1.91832 | 25156 ft | 390 kts | 225° |
| 2026-05-06 09:03 | 40.89272 | -1.94205 | 24535 ft | 388 kts | 225° |
| 2026-05-06 09:03 | 40.87261 | -1.96558 | 23921 ft | 385 kts | 225° |
| 2026-05-06 09:03 | 40.85259 | -1.98896 | 23317 ft | 382 kts | 225° |
| 2026-05-06 09:04 | 40.83274 | -2.01214 | 22735 ft | 380 kts | 225° |
| 2026-05-06 09:04 | 40.81300 | -2.03518 | 22193 ft | 377 kts | 225° |
| 2026-05-06 09:04 | 40.79340 | -2.05803 | 21655 ft | 375 kts | 225° |
| 2026-05-06 09:04 | 40.77392 | -2.08075 | 21149 ft | 372 kts | 225° |
| 2026-05-06 09:05 | 40.75590 | -2.10493 | 20646 ft | 367 kts | 235° |
| 2026-05-06 09:05 | 40.74277 | -2.13333 | 20177 ft | 361 kts | 248° |
| 2026-05-06 09:05 | 40.73524 | -2.16458 | 19787 ft | 359 kts | 260° |
| 2026-05-06 09:05 | 40.73325 | -2.19751 | 19503 ft | 362 kts | 271° |
| 2026-05-06 09:06 | 40.73632 | -2.23041 | 19208 ft | 362 kts | 277° |
| 2026-05-06 09:06 | 40.74025 | -2.26315 | 18884 ft | 361 kts | 277° |
| 2026-05-06 09:06 | 40.74416 | -2.29578 | 18574 ft | 360 kts | 277° |
| 2026-05-06 09:06 | 40.74805 | -2.32838 | 18263 ft | 359 kts | 277° |
| 2026-05-06 09:07 | 40.75193 | -2.36087 | 17955 ft | 358 kts | 277° |
| 2026-05-06 09:07 | 40.75576 | -2.39318 | 17641 ft | 356 kts | 277° |
| 2026-05-06 09:07 | 40.75958 | -2.42545 | 17343 ft | 356 kts | 277° |
| 2026-05-06 09:07 | 40.76339 | -2.45765 | 17039 ft | 356 kts | 278° |
| 2026-05-06 09:08 | 40.76720 | -2.48995 | 16739 ft | 357 kts | 278° |
| 2026-05-06 09:08 | 40.77101 | -2.52231 | 16427 ft | 357 kts | 278° |
| 2026-05-06 09:08 | 40.77481 | -2.55468 | 16128 ft | 356 kts | 278° |
| 2026-05-06 09:08 | 40.77837 | -2.58691 | 15833 ft | 354 kts | 274° |
| 2026-05-06 09:09 | 40.77761 | -2.61927 | 15525 ft | 353 kts | 261° |
| 2026-05-06 09:09 | 40.77094 | -2.65033 | 15228 ft | 353 kts | 248° |
| 2026-05-06 09:09 | 40.75878 | -2.67843 | 14926 ft | 353 kts | 234° |
| 2026-05-06 09:09 | 40.74245 | -2.70191 | 14772 ft | 342 kts | 227° |
| 2026-05-06 09:10 | 40.72596 | -2.72383 | 14645 ft | 331 kts | 227° |
| 2026-05-06 09:10 | 40.71004 | -2.74502 | 14517 ft | 320 kts | 227° |
| 2026-05-06 09:10 | 40.69465 | -2.76552 | 14392 ft | 309 kts | 227° |
| 2026-05-06 09:10 | 40.67977 | -2.78531 | 14269 ft | 300 kts | 227° |
| 2026-05-06 09:11 | 40.66531 | -2.80453 | 14135 ft | 291 kts | 227° |
| 2026-05-06 09:11 | 40.65015 | -2.82153 | 14010 ft | 283 kts | 214° |
| 2026-05-06 09:11 | 40.63362 | -2.83485 | 13884 ft | 274 kts | 214° |
| 2026-05-06 09:11 | 40.61758 | -2.84778 | 13680 ft | 268 kts | 214° |
| 2026-05-06 09:12 | 40.60172 | -2.86059 | 13383 ft | 266 kts | 214° |
| 2026-05-06 09:12 | 40.58601 | -2.87329 | 13072 ft | 265 kts | 214° |
| 2026-05-06 09:12 | 40.57034 | -2.88596 | 12747 ft | 263 kts | 214° |
| 2026-05-06 09:12 | 40.55484 | -2.89847 | 12499 ft | 260 kts | 214° |
| 2026-05-06 09:13 | 40.53967 | -2.91070 | 12278 ft | 259 kts | 213° |
| 2026-05-06 09:13 | 40.52432 | -2.92307 | 12038 ft | 259 kts | 213° |
| 2026-05-06 09:13 | 40.50878 | -2.93559 | 11804 ft | 258 kts | 213° |
| 2026-05-06 09:13 | 40.49345 | -2.94789 | 11575 ft | 258 kts | 213° |
| 2026-05-06 09:14 | 40.47832 | -2.96000 | 11355 ft | 258 kts | 213° |
| 2026-05-06 09:14 | 40.46304 | -2.97222 | 11119 ft | 257 kts | 213° |
| 2026-05-06 09:14 | 40.44777 | -2.98446 | 10869 ft | 257 kts | 213° |
| 2026-05-06 09:14 | 40.43255 | -2.99666 | 10639 ft | 256 kts | 212° |
| 2026-05-06 09:15 | 40.41730 | -3.00888 | 10426 ft | 256 kts | 212° |
| 2026-05-06 09:15 | 40.40211 | -3.02101 | 10182 ft | 256 kts | 212° |
| 2026-05-06 09:15 | 40.38694 | -3.03316 | 9940 ft | 255 kts | 212° |
| 2026-05-06 09:15 | 40.37180 | -3.04531 | 9707 ft | 255 kts | 212° |
| 2026-05-06 09:16 | 40.35670 | -3.05740 | 9479 ft | 254 kts | 212° |
| 2026-05-06 09:16 | 40.34159 | -3.06947 | 9239 ft | 254 kts | 212° |
| 2026-05-06 09:16 | 40.32651 | -3.08152 | 9010 ft | 253 kts | 212° |
| 2026-05-06 09:16 | 40.31148 | -3.09353 | 8777 ft | 253 kts | 212° |
| 2026-05-06 09:17 | 40.29645 | -3.10552 | 8547 ft | 252 kts | 212° |
| 2026-05-06 09:17 | 40.28158 | -3.11763 | 8315 ft | 251 kts | 217° |
| 2026-05-06 09:17 | 40.27023 | -3.13453 | 8087 ft | 248 kts | 244° |
| 2026-05-06 09:17 | 40.26560 | -3.15604 | 7863 ft | 247 kts | 269° |
| 2026-05-06 09:18 | 40.26828 | -3.17802 | 7654 ft | 246 kts | 288° |
| 2026-05-06 09:18 | 40.27355 | -3.19935 | 7421 ft | 246 kts | 288° |
| 2026-05-06 09:18 | 40.27876 | -3.22061 | 7190 ft | 245 kts | 288° |
| 2026-05-06 09:18 | 40.28395 | -3.24190 | 6966 ft | 245 kts | 288° |
| 2026-05-06 09:19 | 40.28909 | -3.26313 | 6737 ft | 244 kts | 288° |
| 2026-05-06 09:19 | 40.29421 | -3.28432 | 6523 ft | 243 kts | 288° |
| 2026-05-06 09:19 | 40.29928 | -3.30541 | 6297 ft | 243 kts | 288° |
| 2026-05-06 09:19 | 40.30433 | -3.32637 | 6070 ft | 239 kts | 288° |
| 2026-05-06 09:20 | 40.30927 | -3.34680 | 5870 ft | 232 kts | 288° |
| 2026-05-06 09:20 | 40.31435 | -3.36652 | 5645 ft | 225 kts | 296° |
| 2026-05-06 09:20 | 40.32298 | -3.38312 | 5446 ft | 218 kts | 315° |
| 2026-05-06 09:20 | 40.33463 | -3.39552 | 5260 ft | 215 kts | 323° |
| 2026-05-06 09:21 | 40.34645 | -3.40739 | 5078 ft | 213 kts | 323° |
| 2026-05-06 09:21 | 40.35815 | -3.41921 | 4838 ft | 212 kts | 323° |
| 2026-05-06 09:21 | 40.36982 | -3.43102 | 4519 ft | 212 kts | 323° |
| 2026-05-06 09:21 | 40.38137 | -3.44270 | 4261 ft | 207 kts | 323° |
| 2026-05-06 09:22 | 40.39261 | -3.45409 | 3955 ft | 203 kts | 323° |
| 2026-05-06 09:22 | 40.40366 | -3.46528 | 3682 ft | 199 kts | 322° |
| 2026-05-06 09:22 | 40.41443 | -3.47619 | 3410 ft | 191 kts | 323° |
| 2026-05-06 09:22 | 40.42475 | -3.48668 | 3152 ft | 183 kts | 323° |
| 2026-05-06 09:23 | 40.43433 | -3.49640 | 2909 ft | 166 kts | 323° |
| 2026-05-06 09:23 | 40.44316 | -3.50537 | 2684 ft | 156 kts | 323° |
| 2026-05-06 09:23 | 40.45166 | -3.51398 | 2478 ft | 153 kts | 323° |
| 2026-05-06 09:23 | 40.46005 | -3.52249 | 2282 ft | 151 kts | 323° |
| 2026-05-06 09:24 | 40.46834 | -3.53093 | 2095 ft | 150 kts | 322° |
| 2026-05-06 09:24 | 40.47634 | -3.53925 | 1996 ft | 145 kts | 322° |
| 2026-05-06 09:24 | 40.48334 | -3.54634 | 1980 ft | 109 kts | 324° |
| 2026-05-06 09:24 | 40.48729 | -3.55025 | 1981 ft | 48 kts | 315° |
| 2026-05-06 09:25 | 40.48879 | -3.55383 | 1984 ft | 42 kts | 287° |
| 2026-05-06 09:25 | 40.49045 | -3.55662 | 1982 ft | 37 kts | 331° |
| 2026-05-06 09:25 | 40.49250 | -3.55849 | 1980 ft | 35 kts | 320° |
| 2026-05-06 09:25 | 40.49270 | -3.56110 | 1980 ft | 30 kts | 248° |